createdAt,value
2017-06-19T00:00:15.743Z,10.20
2017-06-19T00:02:43.275Z,9.60
2017-06-19T00:05:11.227Z,9.50
2017-06-19T00:07:38.763Z,10.37
2017-06-19T00:10:06.291Z,9.77
2017-06-19T00:12:34.035Z,9.30
2017-06-19T00:15:01.576Z,9.90
2017-06-19T00:17:29.112Z,9.23
2017-06-19T00:19:56.664Z,8.40
2017-06-19T00:22:24.195Z,9.57
2017-06-19T00:24:51.730Z,9.23
2017-06-19T00:27:19.686Z,9.60
2017-06-19T00:29:47.212Z,8.60
2017-06-19T00:32:14.751Z,8.17
2017-06-19T00:34:42.309Z,8.63
2017-06-19T00:37:09.847Z,9.00
2017-06-19T00:39:37.771Z,7.70
2017-06-19T00:42:05.323Z,7.97
2017-06-19T00:44:32.850Z,8.70
2017-06-19T00:47:00.388Z,8.97
2017-06-19T00:49:28.339Z,7.90
2017-06-19T00:51:55.867Z,8.53
2017-06-19T00:54:23.390Z,9.90
2017-06-19T00:56:50.950Z,12.10
2017-06-19T00:59:18.883Z,9.53
2017-06-19T03:41:22.275Z,19.63
2017-06-19T03:43:50.239Z,17.43
2017-06-19T03:46:18.171Z,17.73
2017-06-19T03:48:45.702Z,16.93
2017-06-19T03:51:13.570Z,16.20
2017-06-19T03:53:41.102Z,17.37
2017-06-19T03:56:09.037Z,14.40
2017-06-19T03:58:36.588Z,14.00
2017-06-19T04:01:04.124Z,15.30
2017-06-19T04:03:31.659Z,15.50
2017-06-19T04:05:59.232Z,14.07
2017-06-19T04:08:26.768Z,12.60
2017-06-19T04:10:54.303Z,11.70
2017-06-19T04:13:21.874Z,13.07
2017-06-19T04:15:49.415Z,12.90
2017-06-19T04:18:16.955Z,13.10
2017-06-19T04:20:44.506Z,13.20
2017-06-19T04:23:12.048Z,13.07
2017-06-19T04:25:39.971Z,11.93
2017-06-19T04:28:07.535Z,12.10
2017-06-19T04:30:35.104Z,12.20
2017-06-19T04:33:02.639Z,11.20
2017-06-19T04:35:30.179Z,12.20
2017-06-19T04:37:57.739Z,14.50
2017-06-19T04:40:25.274Z,12.13
2017-06-19T04:42:52.806Z,13.30
2017-06-19T04:45:20.358Z,13.47
2017-06-19T04:47:47.885Z,13.30
2017-06-19T04:50:15.413Z,12.60
2017-06-19T04:52:43.375Z,12.37
2017-06-19T04:55:10.907Z,13.00
2017-06-19T04:57:38.443Z,14.83
2017-06-19T05:00:06.003Z,12.50
2017-06-19T05:02:33.534Z,12.07
2017-06-19T05:05:01.075Z,12.00
2017-06-19T05:07:28.626Z,12.83
2017-06-19T05:09:56.164Z,12.50
2017-06-19T05:12:23.694Z,11.63
2017-06-19T05:14:51.267Z,12.27
2017-06-19T05:17:18.807Z,10.67
2017-06-19T05:19:46.342Z,11.20
2017-06-19T05:22:14.298Z,10.67
2017-06-19T05:24:41.839Z,10.13
2017-06-19T05:27:09.373Z,9.30
2017-06-19T05:29:36.931Z,10.57
2017-06-19T05:32:04.463Z,9.87
2017-06-19T05:34:31.999Z,11.53
2017-06-19T05:36:59.558Z,9.50
2017-06-19T05:39:27.086Z,9.30
2017-06-19T05:41:54.616Z,8.70
2017-06-19T05:44:22.522Z,8.20
2017-06-19T05:46:50.092Z,8.47
2017-06-19T05:51:51.039Z,7.97
2017-06-19T05:54:18.562Z,9.47
2017-06-19T05:56:46.098Z,8.90
2017-06-19T05:59:13.652Z,7.97
2017-06-19T06:01:42.015Z,7.37
2017-06-19T06:04:09.543Z,7.80
2017-06-19T06:06:37.090Z,6.77
2017-06-19T06:09:04.619Z,7.40
2017-06-19T06:11:32.171Z,7.43
2017-06-19T06:13:59.719Z,8.60
2017-06-19T06:16:27.263Z,7.40
2017-06-19T06:18:54.811Z,8.30
2017-06-19T06:21:22.339Z,8.10
2017-06-19T06:23:50.281Z,8.47
2017-06-19T06:26:17.814Z,8.80
2017-06-19T06:28:45.343Z,7.43
2017-06-19T06:31:12.850Z,7.83
2017-06-19T06:33:40.815Z,7.70
2017-06-19T06:36:08.347Z,7.03
2017-06-19T06:38:35.904Z,7.63
2017-06-19T06:41:03.443Z,7.90
2017-06-19T06:43:31.368Z,7.63
2017-06-19T06:45:58.939Z,7.23
2017-06-19T06:48:26.467Z,6.77
2017-06-19T06:50:53.998Z,7.67
2017-06-19T06:53:21.546Z,6.80
2017-06-19T06:55:49.477Z,7.10
2017-06-19T06:58:17.006Z,6.63
2017-06-19T07:00:44.559Z,7.20
2017-06-19T07:03:12.086Z,6.87
2017-06-19T07:05:39.621Z,7.80
2017-06-19T07:08:07.171Z,7.27
2017-06-19T07:10:34.703Z,6.77
2017-06-19T07:13:02.261Z,6.60
2017-06-19T07:15:29.840Z,7.57
2017-06-19T07:17:57.421Z,7.07
2017-06-19T07:20:24.938Z,7.07
2017-06-19T07:22:52.496Z,6.90
2017-06-19T07:25:20.024Z,6.30
2017-06-19T07:27:47.543Z,6.43
2017-06-19T07:30:15.099Z,8.47
2017-06-19T07:32:42.637Z,6.90
2017-06-19T07:35:10.163Z,7.80
2017-06-19T07:37:37.714Z,6.80
2017-06-19T07:40:05.238Z,6.90
2017-06-19T07:42:32.774Z,6.77
2017-06-19T07:45:00.723Z,6.90
2017-06-19T07:47:28.251Z,6.93
2017-06-19T07:49:55.770Z,6.33
2017-06-19T07:52:23.322Z,6.50
2017-06-19T07:54:51.249Z,6.40
2017-06-19T07:57:18.907Z,6.90
2017-06-19T07:59:46.439Z,6.33
2017-06-19T08:02:13.971Z,6.10
2017-06-19T08:04:41.936Z,6.63
2017-06-19T08:07:09.455Z,5.90
2017-06-19T08:09:36.988Z,5.50
2017-06-19T08:12:04.559Z,5.43
2017-06-19T08:14:32.115Z,5.70
2017-06-19T08:16:59.647Z,5.20
2017-06-19T08:19:27.600Z,5.60
2017-06-19T08:22:00.685Z,5.77
2017-06-19T08:24:28.239Z,4.93
2017-06-19T08:26:55.771Z,5.30
2017-06-19T08:29:23.285Z,5.47
2017-06-19T08:31:51.240Z,6.00
2017-06-19T08:34:18.783Z,6.00
2017-06-19T08:36:46.314Z,5.80
2017-06-19T08:39:13.891Z,5.77
2017-06-19T08:41:41.410Z,5.40
2017-06-19T08:44:09.343Z,5.90
2017-06-19T08:46:36.895Z,5.60
2017-06-19T08:49:04.422Z,5.37
2017-06-19T08:51:31.951Z,5.70
2017-06-19T08:53:59.903Z,5.87
2017-06-19T08:56:27.438Z,5.80
2017-06-19T08:58:54.961Z,6.07
2017-06-19T09:01:22.514Z,5.73
2017-06-19T09:03:50.438Z,5.70
2017-06-19T09:06:17.971Z,5.80
2017-06-19T09:08:45.519Z,5.23
2017-06-19T09:11:13.055Z,5.93
2017-06-19T09:13:40.966Z,5.90
2017-06-19T09:16:08.522Z,5.97
2017-06-19T09:18:36.055Z,5.10
2017-06-19T09:21:03.974Z,5.80
2017-06-19T09:23:31.532Z,5.40
2017-06-19T09:25:59.062Z,5.23
2017-06-19T09:28:26.582Z,5.50
2017-06-19T09:30:54.139Z,5.03
2017-06-19T09:33:21.667Z,5.27
2017-06-19T09:35:49.191Z,6.57
2017-06-19T09:38:16.734Z,5.43
2017-06-19T09:40:44.264Z,5.77
2017-06-19T09:43:11.782Z,6.63
2017-06-19T09:45:39.337Z,6.47
2017-06-19T09:48:06.823Z,6.00
2017-06-19T09:50:34.392Z,6.40
2017-06-19T09:53:01.977Z,5.93
2017-06-19T09:55:29.538Z,6.00
2017-06-19T09:57:57.087Z,5.70
2017-06-19T10:00:24.644Z,5.40
2017-06-19T10:02:52.170Z,5.27
2017-06-19T10:05:19.918Z,6.17
2017-06-19T10:07:47.868Z,6.40
2017-06-19T10:10:15.390Z,5.50
2017-06-19T10:12:42.918Z,5.63
2017-06-19T10:15:10.474Z,5.87
2017-06-19T10:17:38.003Z,6.17
2017-06-19T10:20:05.531Z,5.87
2017-06-19T10:22:33.092Z,5.77
2017-06-19T10:25:00.615Z,5.93
2017-06-19T10:27:28.147Z,6.23
2017-06-19T10:29:55.690Z,5.33
2017-06-19T10:32:23.220Z,6.43
2017-06-19T10:34:50.742Z,7.10
2017-06-19T10:37:18.688Z,5.67
2017-06-19T10:39:46.214Z,6.30
2017-06-19T10:42:13.748Z,6.03
2017-06-19T10:44:41.299Z,6.40
2017-06-19T10:47:08.827Z,6.67
2017-06-19T10:49:36.352Z,6.07
2017-06-19T10:52:03.899Z,6.20
2017-06-19T10:54:31.431Z,6.53
2017-06-19T10:56:59.355Z,6.40
2017-06-19T10:59:26.909Z,5.90
2017-06-19T11:01:54.439Z,6.10
2017-06-19T11:04:21.972Z,6.20
2017-06-19T11:06:49.526Z,6.07
2017-06-19T11:09:17.051Z,6.60
2017-06-19T11:11:44.579Z,6.50
2017-06-19T11:14:12.134Z,6.60
2017-06-19T11:16:40.061Z,6.27
2017-06-19T11:19:07.582Z,6.03
2017-06-19T11:21:35.135Z,6.20
2017-06-19T11:24:02.663Z,6.57
2017-06-19T11:26:30.198Z,5.93
2017-06-19T11:28:57.760Z,6.23
2017-06-19T11:31:25.286Z,6.10
2017-06-19T11:33:52.818Z,6.97
2017-06-19T11:36:20.767Z,5.50
2017-06-19T11:38:48.299Z,6.60
2017-06-19T11:41:15.827Z,6.70
2017-06-19T11:43:43.381Z,6.93
2017-06-19T11:46:11.304Z,6.37
2017-06-19T11:48:38.830Z,6.20
2017-06-19T11:51:06.385Z,6.30
2017-06-19T11:53:33.920Z,6.60
2017-06-19T11:56:01.448Z,6.23
2017-06-19T11:58:29.006Z,6.50
2017-06-19T12:00:56.534Z,6.03
2017-06-19T12:03:24.067Z,6.33
2017-06-19T12:05:52.059Z,6.40
2017-06-19T12:08:19.590Z,6.40
2017-06-19T12:10:47.111Z,5.80
2017-06-19T12:13:14.662Z,6.53
2017-06-19T12:15:42.205Z,6.67
2017-06-19T12:18:09.735Z,6.27
2017-06-19T12:20:37.679Z,6.60
2017-06-19T12:23:05.207Z,6.40
2017-06-19T12:25:32.731Z,6.43
2017-06-19T12:28:00.682Z,6.60
2017-06-19T12:30:28.204Z,6.20
2017-06-19T12:32:55.735Z,6.40
2017-06-19T12:35:23.282Z,6.70
2017-06-19T12:37:51.211Z,6.30
2017-06-19T12:40:18.772Z,6.20
2017-06-19T12:42:46.310Z,7.33
2017-06-19T12:45:13.839Z,6.83
2017-06-19T12:47:41.764Z,7.37
2017-06-19T12:50:09.316Z,6.77
2017-06-19T12:52:36.851Z,6.87
2017-06-19T12:55:04.383Z,6.20
2017-06-19T12:57:32.332Z,6.23
2017-06-19T12:59:59.854Z,6.27
2017-06-19T13:02:27.383Z,6.20
2017-06-19T13:04:54.934Z,6.27
2017-06-19T13:07:22.860Z,6.37
2017-06-19T13:09:50.395Z,5.53
2017-06-19T13:12:17.955Z,6.80
2017-06-19T13:14:45.483Z,6.47
2017-06-19T13:17:13.436Z,6.60
2017-06-19T13:19:40.995Z,5.97
2017-06-19T13:22:08.507Z,6.33
2017-06-19T13:24:36.054Z,6.60
2017-06-19T13:27:03.583Z,6.70
2017-06-19T13:29:31.220Z,6.63
2017-06-19T13:31:58.771Z,6.17
2017-06-19T13:34:26.299Z,6.23
2017-06-19T13:36:53.823Z,6.37
2017-06-19T13:39:21.379Z,6.80
2017-06-19T13:41:48.913Z,6.50
2017-06-19T13:44:16.442Z,6.60
2017-06-19T13:46:43.994Z,7.13
2017-06-19T13:49:11.551Z,6.50
2017-06-19T13:51:39.477Z,6.30
2017-06-19T13:54:07.034Z,6.30
2017-06-19T13:56:34.579Z,5.87
2017-06-19T13:59:02.127Z,6.80
2017-06-19T14:01:29.691Z,5.80
2017-06-19T14:03:57.200Z,6.77
2017-06-19T14:06:25.139Z,7.10
2017-06-19T14:08:52.669Z,6.60
2017-06-19T14:11:20.207Z,7.77
2017-06-19T14:13:47.755Z,6.63
2017-06-19T14:16:15.284Z,6.50
2017-06-19T14:18:42.831Z,7.73
2017-06-19T14:21:10.374Z,6.90
2017-06-19T14:23:37.907Z,6.73
2017-06-19T14:26:05.868Z,6.90
2017-06-19T14:28:33.395Z,6.57
2017-06-19T14:31:00.924Z,6.87
2017-06-19T14:33:28.484Z,6.93
2017-06-19T14:35:56.015Z,7.43
2017-06-19T14:38:23.541Z,6.80
2017-06-19T14:40:51.092Z,6.67
2017-06-19T14:43:18.619Z,6.70
2017-06-19T14:45:46.151Z,6.97
2017-06-19T14:48:13.701Z,7.90
2017-06-19T14:50:41.235Z,7.43
2017-06-19T14:53:08.754Z,6.60
2017-06-19T14:55:36.343Z,8.43
2017-06-19T14:58:03.875Z,6.93
2017-06-19T15:00:31.792Z,7.10
2017-06-19T15:02:59.347Z,6.73
2017-06-19T15:05:26.878Z,7.40
2017-06-19T15:07:54.481Z,7.00
2017-06-19T15:10:22.022Z,8.40
2017-06-19T15:12:49.550Z,7.10
2017-06-19T15:15:17.088Z,7.03
2017-06-19T15:17:44.647Z,6.90
2017-06-19T15:20:12.181Z,7.23
2017-06-19T15:22:39.711Z,7.07
2017-06-19T15:25:07.271Z,7.00
2017-06-19T15:27:34.798Z,6.83
2017-06-19T15:30:02.727Z,6.63
2017-06-19T15:32:30.295Z,7.57
2017-06-19T15:34:57.823Z,6.93
2017-06-19T15:37:25.316Z,6.73
2017-06-19T15:39:53.303Z,7.23
2017-06-19T15:42:20.835Z,6.90
2017-06-19T15:44:48.363Z,6.20
2017-06-19T15:47:15.918Z,6.40
2017-06-19T15:49:43.450Z,6.30
2017-06-19T15:52:10.976Z,6.00
2017-06-19T15:54:38.523Z,6.40
2017-06-19T15:57:06.050Z,5.87
2017-06-19T15:59:33.579Z,6.20
2017-06-19T16:02:01.235Z,5.67
2017-06-19T16:04:28.759Z,6.43
2017-06-19T16:06:56.288Z,5.80
2017-06-19T16:09:24.239Z,5.47
2017-06-19T16:11:57.573Z,5.70
2017-06-19T16:14:25.126Z,6.17
2017-06-19T16:16:52.650Z,6.23
2017-06-19T16:19:20.170Z,6.23
2017-06-19T16:21:47.726Z,5.70
2017-06-19T16:24:15.258Z,6.03
2017-06-19T16:26:43.192Z,6.00
2017-06-19T16:29:10.744Z,10.30
2017-06-19T16:31:38.279Z,7.50
2017-06-19T16:34:05.807Z,6.13
2017-06-19T16:36:33.366Z,8.07
2017-06-19T16:39:01.291Z,7.50
2017-06-19T16:41:28.832Z,7.97
2017-06-19T16:43:56.390Z,7.80
2017-06-19T16:46:23.920Z,6.10
2017-06-19T16:48:51.856Z,6.70
2017-06-19T16:51:19.413Z,6.57
2017-06-19T16:53:46.945Z,7.10
2017-06-19T16:56:14.479Z,7.37
2017-06-19T16:58:42.034Z,6.80
2017-06-19T17:01:09.571Z,6.73
2017-06-19T17:03:37.098Z,7.77
2017-06-19T17:06:04.653Z,7.80
2017-06-19T17:08:32.184Z,7.40
2017-06-19T17:11:00.233Z,7.83
2017-06-19T17:13:27.788Z,8.30
2017-06-19T17:15:55.315Z,7.70
2017-06-19T17:18:22.898Z,7.93
2017-06-19T17:20:50.538Z,7.90
2017-06-19T17:23:18.107Z,7.60
2017-06-19T17:25:45.632Z,7.70
2017-06-19T17:28:13.273Z,7.73
2017-06-19T17:30:41.234Z,7.53
2017-06-19T17:33:08.772Z,7.83
2017-06-19T17:35:36.425Z,7.37
2017-06-19T17:38:03.967Z,7.60
2017-06-19T17:40:31.502Z,8.00
2017-06-19T17:42:59.110Z,8.07
2017-06-19T17:45:27.670Z,8.27
2017-06-19T17:47:55.241Z,7.20
2017-06-19T17:50:23.219Z,8.73
2017-06-19T17:52:50.928Z,7.87
2017-06-19T17:55:19.229Z,8.40
2017-06-19T17:57:47.070Z,8.07
2017-06-19T18:00:15.166Z,8.17
2017-06-19T18:02:43.265Z,7.27
2017-06-19T18:05:11.592Z,6.77
2017-06-19T18:07:39.971Z,7.80
2017-06-19T18:10:08.435Z,8.20
2017-06-19T18:12:37.011Z,8.63
2017-06-19T18:15:05.503Z,7.57
2017-06-19T18:17:33.992Z,7.80
2017-06-19T18:20:02.387Z,7.57
2017-06-19T18:22:30.813Z,9.20
2017-06-19T18:24:59.669Z,7.50
2017-06-19T18:27:28.236Z,8.00
2017-06-19T18:29:56.723Z,8.07
2017-06-19T18:32:25.279Z,7.40
2017-06-19T18:37:31.372Z,9.13
2017-06-19T18:40:00.071Z,8.03
2017-06-19T18:42:28.584Z,8.50
2017-06-19T18:44:57.090Z,8.83
2017-06-19T18:47:26.132Z,7.83
2017-06-19T18:49:54.622Z,8.10
2017-06-19T18:52:23.185Z,7.77
2017-06-19T18:54:51.849Z,7.70
2017-06-19T18:57:20.792Z,7.40
2017-06-19T18:59:49.719Z,7.87
2017-06-19T19:02:18.347Z,7.40
2017-06-19T19:04:46.897Z,7.50
2017-06-19T19:07:15.407Z,8.40
2017-06-19T19:09:44.177Z,7.77
2017-06-19T19:12:13.100Z,7.33
2017-06-19T19:14:41.746Z,8.57
2017-06-19T19:17:10.790Z,8.60
2017-06-19T19:19:39.739Z,8.50
2017-06-19T19:22:08.664Z,7.10
2017-06-19T19:24:37.306Z,8.17
2017-06-19T19:27:05.821Z,7.27
2017-06-19T19:29:34.378Z,8.07
2017-06-19T19:32:04.031Z,8.50
2017-06-19T19:34:32.878Z,6.87
2017-06-19T19:37:02.206Z,7.63
2017-06-19T19:39:30.846Z,8.23
2017-06-19T19:41:59.407Z,7.80
2017-06-19T19:44:27.941Z,9.17
2017-06-19T19:46:57.075Z,9.63
2017-06-19T19:49:25.588Z,8.03
2017-06-19T19:51:54.134Z,8.37
2017-06-19T19:54:22.828Z,9.30
2017-06-19T19:56:51.337Z,8.43
2017-06-19T19:59:19.995Z,9.57
2017-06-19T20:01:48.655Z,10.50
2017-06-19T20:04:17.594Z,8.30
2017-06-19T20:06:46.164Z,8.43
2017-06-19T20:09:14.804Z,8.20
2017-06-19T20:11:43.357Z,8.90
2017-06-19T20:14:11.894Z,8.37
2017-06-19T20:16:41.024Z,7.97
2017-06-19T20:19:09.595Z,8.70
2017-06-19T20:21:38.127Z,9.13
2017-06-19T20:24:06.778Z,7.80
2017-06-19T20:26:35.450Z,8.30
2017-06-19T20:29:04.019Z,8.53
2017-06-19T20:31:33.068Z,9.37
2017-06-19T20:34:01.562Z,8.50
2017-06-19T20:36:30.073Z,8.60
2017-06-19T20:38:58.744Z,8.70
2017-06-19T20:41:27.278Z,8.30
2017-06-19T20:43:55.801Z,8.93
2017-06-19T20:46:24.681Z,7.97
2017-06-19T20:48:53.236Z,8.73
2017-06-19T20:51:21.753Z,8.37
2017-06-19T20:53:50.418Z,9.47
2017-06-19T20:56:18.943Z,8.33
2017-06-19T20:58:47.502Z,8.30
2017-06-19T21:01:16.102Z,8.77
2017-06-19T21:03:44.622Z,8.80
2017-06-19T21:06:13.416Z,7.30
2017-06-19T21:08:42.040Z,8.30
2017-06-19T21:11:10.512Z,8.20
2017-06-19T21:13:39.007Z,8.80
2017-06-19T21:16:07.693Z,9.27
2017-06-19T21:18:36.079Z,8.83
2017-06-19T21:21:04.465Z,7.60
2017-06-19T21:23:32.653Z,8.13
2017-06-19T21:26:00.229Z,7.80
2017-06-19T21:28:27.775Z,8.63
2017-06-19T21:30:55.339Z,8.10
2017-06-19T21:33:23.267Z,9.30
2017-06-19T21:35:50.816Z,11.03
2017-06-19T21:38:18.376Z,9.60
2017-06-19T21:40:45.907Z,9.60
2017-06-19T21:43:13.443Z,9.30
2017-06-19T21:45:41.400Z,9.23
2017-06-19T21:48:08.935Z,9.17
2017-06-19T21:50:36.463Z,8.47
2017-06-19T21:53:04.023Z,8.77
2017-06-19T21:55:31.556Z,8.30
2017-06-19T21:57:59.485Z,8.33
2017-06-19T22:00:27.040Z,9.10
2017-06-19T22:02:54.582Z,9.40
2017-06-19T22:05:22.111Z,8.43
2017-06-19T22:07:50.063Z,8.83
2017-06-19T22:10:17.591Z,9.07
2017-06-19T22:12:45.123Z,8.90
2017-06-19T22:15:12.682Z,7.87
2017-06-19T22:17:40.250Z,9.10
2017-06-19T22:20:08.158Z,9.17
2017-06-19T22:22:41.443Z,9.47
2017-06-19T22:25:08.967Z,9.40
2017-06-19T22:27:36.499Z,9.77
2017-06-19T22:30:04.451Z,9.60
2017-06-19T22:32:31.988Z,9.80
2017-06-19T22:34:59.510Z,9.07
2017-06-19T22:37:27.066Z,12.17
2017-06-19T22:39:54.999Z,9.10
2017-06-19T22:42:22.529Z,9.33
2017-06-19T22:44:50.083Z,9.73
2017-06-19T22:47:17.615Z,9.80
2017-06-19T22:49:45.142Z,10.00
2017-06-19T22:52:12.815Z,9.50
2017-06-19T22:54:40.368Z,9.10
2017-06-19T22:57:07.898Z,9.33
2017-06-19T22:59:35.431Z,9.87
2017-06-19T23:02:02.986Z,9.53
2017-06-19T23:04:30.519Z,9.83
2017-06-19T23:06:58.062Z,10.23
2017-06-19T23:09:25.612Z,10.20
2017-06-19T23:11:53.143Z,9.43
2017-06-19T23:14:20.679Z,9.70
2017-06-19T23:16:48.632Z,9.33
2017-06-19T23:19:16.163Z,9.07
2017-06-19T23:21:43.698Z,10.53
2017-06-19T23:24:11.255Z,9.70
2017-06-19T23:26:38.792Z,9.13
2017-06-19T23:29:06.720Z,9.43
2017-06-19T23:31:34.275Z,10.73
2017-06-19T23:34:01.803Z,9.57
2017-06-19T23:36:29.334Z,9.70
2017-06-19T23:38:57.287Z,9.57
2017-06-19T23:41:24.818Z,9.77
2017-06-19T23:43:52.355Z,11.90
2017-06-19T23:46:19.907Z,10.00
2017-06-19T23:48:47.438Z,10.33
2017-06-19T23:51:14.971Z,10.20
2017-06-19T23:53:42.527Z,11.00
2017-06-19T23:56:10.061Z,11.03
2017-06-19T23:58:37.599Z,11.57
